sensor_id;sensor_type;location;lat;lon;timestamp;temperature;humidity
26907;DHT22;14472;56.880;16.658;2022-07-10T00:01:08;18.40;1.00
26907;DHT22;14472;56.880;16.658;2022-07-10T00:03:34;18.40;1.00
26907;DHT22;14472;56.880;16.658;2022-07-10T00:05:59;18.30;1.00
26907;DHT22;14472;56.880;16.658;2022-07-10T00:08:26;18.30;1.00
26907;DHT22;14472;56.880;16.658;2022-07-10T00:10:52;18.30;1.00
26907;DHT22;14472;56.880;16.658;2022-07-10T00:13:18;18.30;1.00
26907;DHT22;14472;56.880;16.658;2022-07-10T00:15:43;18.30;1.00
26907;DHT22;14472;56.880;16.658;2022-07-10T00:18:09;18.30;1.00
26907;DHT22;14472;56.880;16.658;2022-07-10T00:20:35;18.30;1.00
26907;DHT22;14472;56.880;16.658;2022-07-10T00:23:01;18.20;1.00
26907;DHT22;14472;56.880;16.658;2022-07-10T00:25:27;18.20;1.00
26907;DHT22;14472;56.880;16.658;2022-07-10T00:27:53;18.20;1.00
26907;DHT22;14472;56.880;16.658;2022-07-10T00:30:19;18.10;1.00
26907;DHT22;14472;56.880;16.658;2022-07-10T00:32:45;18.10;1.00
26907;DHT22;14472;56.880;16.658;2022-07-10T00:35:10;18.10;1.00
26907;DHT22;14472;56.880;16.658;2022-07-10T00:37:36;18.10;1.00
26907;DHT22;14472;56.880;16.658;2022-07-10T00:40:02;18.10;1.00
26907;DHT22;14472;56.880;16.658;2022-07-10T00:42:30;18.10;1.00
26907;DHT22;14472;56.880;16.658;2022-07-10T00:44:55;18.00;1.00
26907;DHT22;14472;56.880;16.658;2022-07-10T00:47:22;18.10;1.00
26907;DHT22;14472;56.880;16.658;2022-07-10T00:49:48;18.00;1.00
26907;DHT22;14472;56.880;16.658;2022-07-10T00:52:15;18.00;1.00
26907;DHT22;14472;56.880;16.658;2022-07-10T00:54:44;18.00;1.00
26907;DHT22;14472;56.880;16.658;2022-07-10T00:57:13;18.00;1.00
26907;DHT22;14472;56.880;16.658;2022-07-10T00:59:40;18.00;1.00
26907;DHT22;14472;56.880;16.658;2022-07-10T01:02:06;17.90;1.00
26907;DHT22;14472;56.880;16.658;2022-07-10T01:04:33;17.90;1.00
26907;DHT22;14472;56.880;16.658;2022-07-10T01:06:59;17.90;1.00
26907;DHT22;14472;56.880;16.658;2022-07-10T01:09:26;17.90;1.00
26907;DHT22;14472;56.880;16.658;2022-07-10T01:11:52;17.80;1.00
26907;DHT22;14472;56.880;16.658;2022-07-10T01:14:18;17.90;1.00
26907;DHT22;14472;56.880;16.658;2022-07-10T01:16:43;17.80;1.00
26907;DHT22;14472;56.880;16.658;2022-07-10T01:19:09;17.90;1.00
26907;DHT22;14472;56.880;16.658;2022-07-10T01:21:36;17.90;1.00
26907;DHT22;14472;56.880;16.658;2022-07-10T01:24:10;17.90;1.00
26907;DHT22;14472;56.880;16.658;2022-07-10T01:26:37;17.80;1.00
26907;DHT22;14472;56.880;16.658;2022-07-10T01:29:05;17.80;1.00
26907;DHT22;14472;56.880;16.658;2022-07-10T01:31:32;17.70;1.00
26907;DHT22;14472;56.880;16.658;2022-07-10T01:34:00;17.70;1.00
26907;DHT22;14472;56.880;16.658;2022-07-10T01:36:28;17.70;1.00
26907;DHT22;14472;56.880;16.658;2022-07-10T01:38:55;17.70;1.00
26907;DHT22;14472;56.880;16.658;2022-07-10T01:41:22;17.70;1.00
26907;DHT22;14472;56.880;16.658;2022-07-10T01:43:48;17.60;1.00
26907;DHT22;14472;56.880;16.658;2022-07-10T01:46:14;17.60;1.00
26907;DHT22;14472;56.880;16.658;2022-07-10T01:48:41;17.60;1.00
26907;DHT22;14472;56.880;16.658;2022-07-10T01:51:08;17.60;1.00
26907;DHT22;14472;56.880;16.658;2022-07-10T01:53:34;17.60;1.00
26907;DHT22;14472;56.880;16.658;2022-07-10T01:56:03;17.50;1.00
26907;DHT22;14472;56.880;16.658;2022-07-10T01:58:30;17.50;1.00
26907;DHT22;14472;56.880;16.658;2022-07-10T02:00:56;17.50;1.00
26907;DHT22;14472;56.880;16.658;2022-07-10T02:03:22;17.40;1.00
26907;DHT22;14472;56.880;16.658;2022-07-10T02:06:06;17.40;1.00
26907;DHT22;14472;56.880;16.658;2022-07-10T02:08:32;17.40;1.00
26907;DHT22;14472;56.880;16.658;2022-07-10T02:10:58;17.40;1.00
26907;DHT22;14472;56.880;16.658;2022-07-10T02:13:24;17.40;1.00
26907;DHT22;14472;56.880;16.658;2022-07-10T02:15:53;17.40;1.00
26907;DHT22;14472;56.880;16.658;2022-07-10T02:18:20;17.30;1.00
26907;DHT22;14472;56.880;16.658;2022-07-10T02:20:46;17.30;1.00
26907;DHT22;14472;56.880;16.658;2022-07-10T02:23:12;17.30;1.00
26907;DHT22;14472;56.880;16.658;2022-07-10T02:25:38;17.30;1.00
26907;DHT22;14472;56.880;16.658;2022-07-10T02:28:04;17.30;1.00
26907;DHT22;14472;56.880;16.658;2022-07-10T02:30:30;17.30;1.00
26907;DHT22;14472;56.880;16.658;2022-07-10T02:32:56;17.30;1.00
26907;DHT22;14472;56.880;16.658;2022-07-10T02:35:22;17.30;1.00
26907;DHT22;14472;56.880;16.658;2022-07-10T02:37:48;17.30;1.00
26907;DHT22;14472;56.880;16.658;2022-07-10T02:40:14;17.30;1.00
26907;DHT22;14472;56.880;16.658;2022-07-10T02:42:40;17.30;1.00
26907;DHT22;14472;56.880;16.658;2022-07-10T02:45:07;17.20;1.00
26907;DHT22;14472;56.880;16.658;2022-07-10T02:47:34;17.30;1.00
26907;DHT22;14472;56.880;16.658;2022-07-10T02:49:59;17.20;1.00
26907;DHT22;14472;56.880;16.658;2022-07-10T02:52:25;17.20;1.00
26907;DHT22;14472;56.880;16.658;2022-07-10T02:54:51;17.10;1.00
26907;DHT22;14472;56.880;16.658;2022-07-10T02:57:17;17.10;1.00
26907;DHT22;14472;56.880;16.658;2022-07-10T02:59:43;17.10;1.00
26907;DHT22;14472;56.880;16.658;2022-07-10T03:02:09;17.10;1.00
26907;DHT22;14472;56.880;16.658;2022-07-10T03:04:34;17.10;1.00
26907;DHT22;14472;56.880;16.658;2022-07-10T03:07:00;17.10;1.00
26907;DHT22;14472;56.880;16.658;2022-07-10T03:09:26;17.10;1.00
26907;DHT22;14472;56.880;16.658;2022-07-10T03:11:52;17.10;1.00
26907;DHT22;14472;56.880;16.658;2022-07-10T03:14:18;17.10;1.00
26907;DHT22;14472;56.880;16.658;2022-07-10T03:16:44;17.10;1.00
26907;DHT22;14472;56.880;16.658;2022-07-10T03:19:09;17.10;1.00
26907;DHT22;14472;56.880;16.658;2022-07-10T03:21:35;17.10;1.00
26907;DHT22;14472;56.880;16.658;2022-07-10T03:24:01;17.10;1.00
26907;DHT22;14472;56.880;16.658;2022-07-10T03:26:27;17.10;1.00
26907;DHT22;14472;56.880;16.658;2022-07-10T03:28:55;17.10;1.00
26907;DHT22;14472;56.880;16.658;2022-07-10T03:31:22;17.20;1.00
26907;DHT22;14472;56.880;16.658;2022-07-10T03:33:48;17.20;1.00
26907;DHT22;14472;56.880;16.658;2022-07-10T03:36:14;17.20;1.00
26907;DHT22;14472;56.880;16.658;2022-07-10T03:38:40;17.20;1.00
26907;DHT22;14472;56.880;16.658;2022-07-10T03:41:06;17.20;1.00
26907;DHT22;14472;56.880;16.658;2022-07-10T03:43:32;17.20;1.00
26907;DHT22;14472;56.880;16.658;2022-07-10T03:45:58;17.30;1.00
26907;DHT22;14472;56.880;16.658;2022-07-10T03:48:24;17.30;1.00
26907;DHT22;14472;56.880;16.658;2022-07-10T03:50:51;17.30;1.00
26907;DHT22;14472;56.880;16.658;2022-07-10T03:53:18;17.30;1.00
26907;DHT22;14472;56.880;16.658;2022-07-10T03:55:44;17.20;1.00
26907;DHT22;14472;56.880;16.658;2022-07-10T03:58:10;17.30;1.00
26907;DHT22;14472;56.880;16.658;2022-07-10T04:00:36;17.20;1.00
26907;DHT22;14472;56.880;16.658;2022-07-10T04:03:07;17.20;1.00
26907;DHT22;14472;56.880;16.658;2022-07-10T04:05:33;17.20;1.00
26907;DHT22;14472;56.880;16.658;2022-07-10T04:08:00;17.20;1.00
26907;DHT22;14472;56.880;16.658;2022-07-10T04:10:28;17.20;1.00
26907;DHT22;14472;56.880;16.658;2022-07-10T04:12:54;17.20;1.00
26907;DHT22;14472;56.880;16.658;2022-07-10T04:15:21;17.30;1.00
26907;DHT22;14472;56.880;16.658;2022-07-10T04:17:48;17.30;1.00
26907;DHT22;14472;56.880;16.658;2022-07-10T04:20:14;17.20;1.00
26907;DHT22;14472;56.880;16.658;2022-07-10T04:22:40;17.20;1.00
26907;DHT22;14472;56.880;16.658;2022-07-10T04:25:06;17.20;1.00
26907;DHT22;14472;56.880;16.658;2022-07-10T04:27:32;17.20;1.00
26907;DHT22;14472;56.880;16.658;2022-07-10T04:29:58;17.20;1.00
26907;DHT22;14472;56.880;16.658;2022-07-10T04:32:24;17.20;1.00
26907;DHT22;14472;56.880;16.658;2022-07-10T04:34:50;17.30;1.00
26907;DHT22;14472;56.880;16.658;2022-07-10T04:37:16;17.20;1.00
26907;DHT22;14472;56.880;16.658;2022-07-10T04:39:42;17.20;1.00
26907;DHT22;14472;56.880;16.658;2022-07-10T04:42:09;17.20;1.00
26907;DHT22;14472;56.880;16.658;2022-07-10T04:44:35;17.30;1.00
26907;DHT22;14472;56.880;16.658;2022-07-10T04:47:02;17.20;1.00
26907;DHT22;14472;56.880;16.658;2022-07-10T04:49:28;17.20;1.00
26907;DHT22;14472;56.880;16.658;2022-07-10T04:51:55;17.30;1.00
26907;DHT22;14472;56.880;16.658;2022-07-10T04:54:22;17.30;1.00
26907;DHT22;14472;56.880;16.658;2022-07-10T04:56:48;17.30;1.00
26907;DHT22;14472;56.880;16.658;2022-07-10T04:59:14;17.30;1.00
26907;DHT22;14472;56.880;16.658;2022-07-10T05:01:40;17.30;1.00
26907;DHT22;14472;56.880;16.658;2022-07-10T05:04:05;17.30;1.00
26907;DHT22;14472;56.880;16.658;2022-07-10T05:06:31;17.30;1.00
26907;DHT22;14472;56.880;16.658;2022-07-10T05:08:57;17.40;1.00
26907;DHT22;14472;56.880;16.658;2022-07-10T05:11:23;17.30;1.00
26907;DHT22;14472;56.880;16.658;2022-07-10T05:13:49;17.40;1.00
26907;DHT22;14472;56.880;16.658;2022-07-10T05:16:15;17.40;1.00
26907;DHT22;14472;56.880;16.658;2022-07-10T05:18:41;17.40;1.00
26907;DHT22;14472;56.880;16.658;2022-07-10T05:21:08;17.40;1.00
26907;DHT22;14472;56.880;16.658;2022-07-10T05:23:34;17.40;1.00
26907;DHT22;14472;56.880;16.658;2022-07-10T05:26:00;17.40;1.00
26907;DHT22;14472;56.880;16.658;2022-07-10T05:28:26;17.40;1.00
26907;DHT22;14472;56.880;16.658;2022-07-10T05:30:52;17.40;1.00
26907;DHT22;14472;56.880;16.658;2022-07-10T05:33:18;17.50;1.00
26907;DHT22;14472;56.880;16.658;2022-07-10T05:35:44;17.50;1.00
26907;DHT22;14472;56.880;16.658;2022-07-10T05:38:09;17.50;1.00
26907;DHT22;14472;56.880;16.658;2022-07-10T05:40:35;17.50;1.00
26907;DHT22;14472;56.880;16.658;2022-07-10T05:43:01;17.50;1.00
26907;DHT22;14472;56.880;16.658;2022-07-10T05:45:27;17.50;1.00
26907;DHT22;14472;56.880;16.658;2022-07-10T05:47:53;17.60;1.00
26907;DHT22;14472;56.880;16.658;2022-07-10T05:50:18;17.60;1.00
26907;DHT22;14472;56.880;16.658;2022-07-10T05:52:45;17.60;1.00
26907;DHT22;14472;56.880;16.658;2022-07-10T05:55:10;17.70;1.00
26907;DHT22;14472;56.880;16.658;2022-07-10T05:57:36;17.70;1.00
26907;DHT22;14472;56.880;16.658;2022-07-10T06:00:06;17.80;1.00
26907;DHT22;14472;56.880;16.658;2022-07-10T06:02:32;17.80;1.00
26907;DHT22;14472;56.880;16.658;2022-07-10T06:04:58;17.80;1.00
26907;DHT22;14472;56.880;16.658;2022-07-10T06:07:25;17.80;1.00
26907;DHT22;14472;56.880;16.658;2022-07-10T06:09:51;17.90;1.00
26907;DHT22;14472;56.880;16.658;2022-07-10T06:12:16;17.90;1.00
26907;DHT22;14472;56.880;16.658;2022-07-10T06:14:42;17.90;1.00
26907;DHT22;14472;56.880;16.658;2022-07-10T06:17:08;18.00;1.00
26907;DHT22;14472;56.880;16.658;2022-07-10T06:19:34;18.00;1.00
26907;DHT22;14472;56.880;16.658;2022-07-10T06:22:00;18.10;1.00
26907;DHT22;14472;56.880;16.658;2022-07-10T06:24:45;18.10;1.00
26907;DHT22;14472;56.880;16.658;2022-07-10T06:27:11;18.20;1.00
26907;DHT22;14472;56.880;16.658;2022-07-10T06:29:36;18.20;1.00
26907;DHT22;14472;56.880;16.658;2022-07-10T06:32:03;18.20;1.00
26907;DHT22;14472;56.880;16.658;2022-07-10T06:34:28;18.30;1.00
26907;DHT22;14472;56.880;16.658;2022-07-10T06:36:54;18.30;1.00
26907;DHT22;14472;56.880;16.658;2022-07-10T06:39:20;18.40;1.00
26907;DHT22;14472;56.880;16.658;2022-07-10T06:41:46;18.40;1.00
26907;DHT22;14472;56.880;16.658;2022-07-10T06:44:11;18.50;1.00
26907;DHT22;14472;56.880;16.658;2022-07-10T06:46:37;18.50;1.00
26907;DHT22;14472;56.880;16.658;2022-07-10T06:49:03;18.70;1.00
26907;DHT22;14472;56.880;16.658;2022-07-10T06:51:29;18.70;1.00
26907;DHT22;14472;56.880;16.658;2022-07-10T06:53:56;18.80;1.00
26907;DHT22;14472;56.880;16.658;2022-07-10T06:56:22;18.90;1.00
26907;DHT22;14472;56.880;16.658;2022-07-10T06:58:47;19.10;1.00
26907;DHT22;14472;56.880;16.658;2022-07-10T07:01:13;19.10;1.00
26907;DHT22;14472;56.880;16.658;2022-07-10T07:03:39;19.20;1.00
26907;DHT22;14472;56.880;16.658;2022-07-10T07:06:05;19.30;1.00
26907;DHT22;14472;56.880;16.658;2022-07-10T07:08:31;19.40;1.00
26907;DHT22;14472;56.880;16.658;2022-07-10T07:10:56;19.50;1.00
26907;DHT22;14472;56.880;16.658;2022-07-10T07:13:22;19.60;1.00
26907;DHT22;14472;56.880;16.658;2022-07-10T07:15:48;19.60;1.00
26907;DHT22;14472;56.880;16.658;2022-07-10T07:18:25;19.70;1.00
26907;DHT22;14472;56.880;16.658;2022-07-10T07:21:01;19.80;1.00
26907;DHT22;14472;56.880;16.658;2022-07-10T07:23:45;19.80;1.00
26907;DHT22;14472;56.880;16.658;2022-07-10T07:26:11;19.80;1.00
26907;DHT22;14472;56.880;16.658;2022-07-10T07:28:37;19.90;1.00
26907;DHT22;14472;56.880;16.658;2022-07-10T07:31:02;20.00;1.00
26907;DHT22;14472;56.880;16.658;2022-07-10T07:33:28;20.10;1.00
26907;DHT22;14472;56.880;16.658;2022-07-10T07:35:54;20.20;1.00
26907;DHT22;14472;56.880;16.658;2022-07-10T07:38:20;20.30;1.00
26907;DHT22;14472;56.880;16.658;2022-07-10T07:40:46;20.30;1.00
26907;DHT22;14472;56.880;16.658;2022-07-10T07:43:12;20.40;1.00
26907;DHT22;14472;56.880;16.658;2022-07-10T07:45:37;20.50;1.00
26907;DHT22;14472;56.880;16.658;2022-07-10T07:48:03;20.60;1.00
26907;DHT22;14472;56.880;16.658;2022-07-10T07:50:34;20.60;1.00
26907;DHT22;14472;56.880;16.658;2022-07-10T07:53:01;20.70;1.00
26907;DHT22;14472;56.880;16.658;2022-07-10T07:55:29;20.80;1.00
26907;DHT22;14472;56.880;16.658;2022-07-10T07:57:55;20.80;1.00
26907;DHT22;14472;56.880;16.658;2022-07-10T08:00:23;20.90;1.00
26907;DHT22;14472;56.880;16.658;2022-07-10T08:02:50;21.00;1.00
26907;DHT22;14472;56.880;16.658;2022-07-10T08:05:17;21.10;1.00
26907;DHT22;14472;56.880;16.658;2022-07-10T08:07:48;21.20;1.00
26907;DHT22;14472;56.880;16.658;2022-07-10T08:10:16;21.30;1.00
26907;DHT22;14472;56.880;16.658;2022-07-10T08:12:42;21.40;1.00
26907;DHT22;14472;56.880;16.658;2022-07-10T08:15:10;21.50;1.00
26907;DHT22;14472;56.880;16.658;2022-07-10T08:17:36;21.60;1.00
26907;DHT22;14472;56.880;16.658;2022-07-10T08:20:04;21.70;1.00
26907;DHT22;14472;56.880;16.658;2022-07-10T08:22:31;21.80;1.00
26907;DHT22;14472;56.880;16.658;2022-07-10T08:24:57;21.90;1.00
26907;DHT22;14472;56.880;16.658;2022-07-10T08:27:23;22.00;1.00
26907;DHT22;14472;56.880;16.658;2022-07-10T08:29:49;22.10;1.00
26907;DHT22;14472;56.880;16.658;2022-07-10T08:32:15;22.10;1.00
26907;DHT22;14472;56.880;16.658;2022-07-10T08:34:40;22.20;1.00
26907;DHT22;14472;56.880;16.658;2022-07-10T08:37:06;22.30;1.00
26907;DHT22;14472;56.880;16.658;2022-07-10T08:39:32;22.40;1.00
26907;DHT22;14472;56.880;16.658;2022-07-10T08:41:59;22.40;1.00
26907;DHT22;14472;56.880;16.658;2022-07-10T08:44:25;22.50;1.00
26907;DHT22;14472;56.880;16.658;2022-07-10T08:46:51;22.50;1.00
26907;DHT22;14472;56.880;16.658;2022-07-10T08:49:17;22.60;1.00
26907;DHT22;14472;56.880;16.658;2022-07-10T08:52:04;22.70;1.00
26907;DHT22;14472;56.880;16.658;2022-07-10T08:54:31;22.80;1.00
26907;DHT22;14472;56.880;16.658;2022-07-10T08:56:59;22.80;1.00
26907;DHT22;14472;56.880;16.658;2022-07-10T08:59:25;22.90;1.00
26907;DHT22;14472;56.880;16.658;2022-07-10T09:01:51;22.90;1.00
26907;DHT22;14472;56.880;16.658;2022-07-10T09:04:20;22.90;1.00
26907;DHT22;14472;56.880;16.658;2022-07-10T09:06:47;22.80;1.00
26907;DHT22;14472;56.880;16.658;2022-07-10T09:09:13;22.80;1.00
26907;DHT22;14472;56.880;16.658;2022-07-10T09:11:40;22.60;1.00
26907;DHT22;14472;56.880;16.658;2022-07-10T09:14:11;22.50;1.00
26907;DHT22;14472;56.880;16.658;2022-07-10T09:16:43;22.40;1.00
26907;DHT22;14472;56.880;16.658;2022-07-10T09:19:14;22.30;1.00
26907;DHT22;14472;56.880;16.658;2022-07-10T09:21:40;22.20;1.00
26907;DHT22;14472;56.880;16.658;2022-07-10T09:24:07;22.10;1.00
26907;DHT22;14472;56.880;16.658;2022-07-10T09:26:36;21.90;1.00
26907;DHT22;14472;56.880;16.658;2022-07-10T09:29:12;21.80;1.00
26907;DHT22;14472;56.880;16.658;2022-07-10T09:31:54;21.70;1.00
26907;DHT22;14472;56.880;16.658;2022-07-10T09:34:42;21.70;1.00
26907;DHT22;14472;56.880;16.658;2022-07-10T09:37:24;21.50;1.00
26907;DHT22;14472;56.880;16.658;2022-07-10T09:40:01;21.40;1.00
26907;DHT22;14472;56.880;16.658;2022-07-10T09:42:34;21.30;1.00
26907;DHT22;14472;56.880;16.658;2022-07-10T09:48:03;21.10;1.00
26907;DHT22;14472;56.880;16.658;2022-07-10T09:50:36;21.10;1.00
26907;DHT22;14472;56.880;16.658;2022-07-10T09:53:04;21.10;1.00
26907;DHT22;14472;56.880;16.658;2022-07-10T09:55:35;21.00;1.00
26907;DHT22;14472;56.880;16.658;2022-07-10T09:58:06;21.00;1.00
26907;DHT22;14472;56.880;16.658;2022-07-10T10:00:40;21.00;1.00
26907;DHT22;14472;56.880;16.658;2022-07-10T10:03:10;21.00;1.00
26907;DHT22;14472;56.880;16.658;2022-07-10T10:06:10;21.00;1.00
26907;DHT22;14472;56.880;16.658;2022-07-10T10:11:14;21.10;1.00
26907;DHT22;14472;56.880;16.658;2022-07-10T10:13:57;21.20;1.00
26907;DHT22;14472;56.880;16.658;2022-07-10T10:16:41;21.20;1.00
26907;DHT22;14472;56.880;16.658;2022-07-10T10:19:36;21.10;1.00
26907;DHT22;14472;56.880;16.658;2022-07-10T10:22:22;20.90;1.00
26907;DHT22;14472;56.880;16.658;2022-07-10T10:24:49;20.80;1.00
26907;DHT22;14472;56.880;16.658;2022-07-10T10:27:16;20.80;1.00
26907;DHT22;14472;56.880;16.658;2022-07-10T10:29:43;20.80;1.00
26907;DHT22;14472;56.880;16.658;2022-07-10T10:32:10;20.80;1.00
26907;DHT22;14472;56.880;16.658;2022-07-10T10:34:42;20.70;1.00
26907;DHT22;14472;56.880;16.658;2022-07-10T10:37:35;20.70;1.00
26907;DHT22;14472;56.880;16.658;2022-07-10T10:40:09;20.60;1.00
26907;DHT22;14472;56.880;16.658;2022-07-10T10:42:40;20.60;1.00
26907;DHT22;14472;56.880;16.658;2022-07-10T10:50:52;20.60;1.00
26907;DHT22;14472;56.880;16.658;2022-07-10T10:53:27;20.60;1.00
26907;DHT22;14472;56.880;16.658;2022-07-10T10:58:41;20.50;1.00
26907;DHT22;14472;56.880;16.658;2022-07-10T11:06:45;20.30;1.00
26907;DHT22;14472;56.880;16.658;2022-07-10T11:09:31;20.30;1.00
26907;DHT22;14472;56.880;16.658;2022-07-10T11:12:11;20.30;1.00
26907;DHT22;14472;56.880;16.658;2022-07-10T11:14:45;20.30;1.00
26907;DHT22;14472;56.880;16.658;2022-07-10T11:17:13;20.20;1.00
26907;DHT22;14472;56.880;16.658;2022-07-10T11:19:41;20.20;1.00
26907;DHT22;14472;56.880;16.658;2022-07-10T11:22:31;20.20;1.00
26907;DHT22;14472;56.880;16.658;2022-07-10T11:25:28;20.20;1.00
26907;DHT22;14472;56.880;16.658;2022-07-10T11:28:11;20.30;1.00
26907;DHT22;14472;56.880;16.658;2022-07-10T11:30:51;20.40;1.00
26907;DHT22;14472;56.880;16.658;2022-07-10T11:33:18;20.40;1.00
26907;DHT22;14472;56.880;16.658;2022-07-10T11:35:51;20.50;1.00
26907;DHT22;14472;56.880;16.658;2022-07-10T11:38:25;20.50;1.00
26907;DHT22;14472;56.880;16.658;2022-07-10T11:40:52;20.60;1.00
26907;DHT22;14472;56.880;16.658;2022-07-10T11:43:21;20.60;1.00
26907;DHT22;14472;56.880;16.658;2022-07-10T11:45:50;20.80;1.00
26907;DHT22;14472;56.880;16.658;2022-07-10T11:48:18;20.90;1.00
26907;DHT22;14472;56.880;16.658;2022-07-10T11:50:45;20.90;1.00
26907;DHT22;14472;56.880;16.658;2022-07-10T11:53:11;21.00;1.00
26907;DHT22;14472;56.880;16.658;2022-07-10T11:55:37;21.00;1.00
26907;DHT22;14472;56.880;16.658;2022-07-10T11:58:18;21.10;1.00
26907;DHT22;14472;56.880;16.658;2022-07-10T12:01:00;21.10;1.00
26907;DHT22;14472;56.880;16.658;2022-07-10T12:03:27;21.20;1.00
26907;DHT22;14472;56.880;16.658;2022-07-10T12:05:53;21.10;1.00
26907;DHT22;14472;56.880;16.658;2022-07-10T12:11:43;21.30;1.00
26907;DHT22;14472;56.880;16.658;2022-07-10T12:14:19;21.30;1.00
26907;DHT22;14472;56.880;16.658;2022-07-10T12:16:47;21.30;1.00
26907;DHT22;14472;56.880;16.658;2022-07-10T12:19:20;21.30;1.00
26907;DHT22;14472;56.880;16.658;2022-07-10T12:21:47;21.30;1.00
26907;DHT22;14472;56.880;16.658;2022-07-10T12:24:16;21.30;1.00
26907;DHT22;14472;56.880;16.658;2022-07-10T12:26:43;21.20;1.00
26907;DHT22;14472;56.880;16.658;2022-07-10T12:29:25;21.20;1.00
26907;DHT22;14472;56.880;16.658;2022-07-10T12:31:55;21.10;1.00
26907;DHT22;14472;56.880;16.658;2022-07-10T12:34:33;21.10;1.00
26907;DHT22;14472;56.880;16.658;2022-07-10T12:37:09;21.00;1.00
26907;DHT22;14472;56.880;16.658;2022-07-10T12:39:37;20.90;1.00
26907;DHT22;14472;56.880;16.658;2022-07-10T12:42:06;20.90;1.00
26907;DHT22;14472;56.880;16.658;2022-07-10T12:44:45;20.80;1.00
26907;DHT22;14472;56.880;16.658;2022-07-10T12:47:15;20.80;1.00
26907;DHT22;14472;56.880;16.658;2022-07-10T12:49:55;20.80;1.00
26907;DHT22;14472;56.880;16.658;2022-07-10T12:52:31;20.80;1.00
26907;DHT22;14472;56.880;16.658;2022-07-10T12:55:19;20.70;1.00
26907;DHT22;14472;56.880;16.658;2022-07-10T12:57:54;20.70;1.00
26907;DHT22;14472;56.880;16.658;2022-07-10T13:00:26;20.60;1.00
26907;DHT22;14472;56.880;16.658;2022-07-10T13:03:01;20.50;1.00
26907;DHT22;14472;56.880;16.658;2022-07-10T13:05:38;20.40;1.00
26907;DHT22;14472;56.880;16.658;2022-07-10T13:08:15;20.40;1.00
26907;DHT22;14472;56.880;16.658;2022-07-10T13:10:43;20.30;1.00
26907;DHT22;14472;56.880;16.658;2022-07-10T13:13:10;20.30;1.00
26907;DHT22;14472;56.880;16.658;2022-07-10T13:15:37;20.10;1.00
26907;DHT22;14472;56.880;16.658;2022-07-10T13:18:07;20.10;1.00
26907;DHT22;14472;56.880;16.658;2022-07-10T13:20:37;20.20;1.00
26907;DHT22;14472;56.880;16.658;2022-07-10T13:23:03;20.10;1.00
26907;DHT22;14472;56.880;16.658;2022-07-10T13:25:29;20.10;1.00
26907;DHT22;14472;56.880;16.658;2022-07-10T13:27:55;20.10;1.00
26907;DHT22;14472;56.880;16.658;2022-07-10T13:30:21;20.10;1.00
26907;DHT22;14472;56.880;16.658;2022-07-10T13:32:46;20.00;1.00
26907;DHT22;14472;56.880;16.658;2022-07-10T13:35:12;19.90;1.00
26907;DHT22;14472;56.880;16.658;2022-07-10T13:37:38;20.00;1.00
26907;DHT22;14472;56.880;16.658;2022-07-10T13:40:04;19.80;1.00
26907;DHT22;14472;56.880;16.658;2022-07-10T13:42:30;19.70;1.00
26907;DHT22;14472;56.880;16.658;2022-07-10T13:44:56;19.70;1.00
26907;DHT22;14472;56.880;16.658;2022-07-10T13:47:21;19.70;1.00
26907;DHT22;14472;56.880;16.658;2022-07-10T13:49:47;19.70;1.00
26907;DHT22;14472;56.880;16.658;2022-07-10T13:52:13;19.70;1.00
26907;DHT22;14472;56.880;16.658;2022-07-10T13:54:39;19.70;1.00
26907;DHT22;14472;56.880;16.658;2022-07-10T13:57:05;19.70;1.00
26907;DHT22;14472;56.880;16.658;2022-07-10T13:59:30;19.60;1.00
26907;DHT22;14472;56.880;16.658;2022-07-10T14:01:56;19.60;1.00
26907;DHT22;14472;56.880;16.658;2022-07-10T14:04:22;19.60;1.00
26907;DHT22;14472;56.880;16.658;2022-07-10T14:06:48;19.60;1.00
26907;DHT22;14472;56.880;16.658;2022-07-10T14:09:13;19.60;1.00
26907;DHT22;14472;56.880;16.658;2022-07-10T14:11:40;19.60;1.00
26907;DHT22;14472;56.880;16.658;2022-07-10T14:14:06;19.60;1.00
26907;DHT22;14472;56.880;16.658;2022-07-10T14:16:32;19.60;1.00
26907;DHT22;14472;56.880;16.658;2022-07-10T14:18:57;19.60;1.00
26907;DHT22;14472;56.880;16.658;2022-07-10T14:21:23;19.60;1.00
26907;DHT22;14472;56.880;16.658;2022-07-10T14:23:52;19.60;1.00
26907;DHT22;14472;56.880;16.658;2022-07-10T14:26:18;19.60;1.00
26907;DHT22;14472;56.880;16.658;2022-07-10T14:28:44;19.60;1.00
26907;DHT22;14472;56.880;16.658;2022-07-10T14:31:10;19.60;1.00
26907;DHT22;14472;56.880;16.658;2022-07-10T14:33:36;19.70;1.00
26907;DHT22;14472;56.880;16.658;2022-07-10T14:36:03;19.70;1.00
26907;DHT22;14472;56.880;16.658;2022-07-10T14:38:29;19.70;1.00
26907;DHT22;14472;56.880;16.658;2022-07-10T14:40:55;19.70;1.00
26907;DHT22;14472;56.880;16.658;2022-07-10T14:43:22;19.70;1.00
26907;DHT22;14472;56.880;16.658;2022-07-10T14:45:50;19.70;1.00
26907;DHT22;14472;56.880;16.658;2022-07-10T14:48:16;19.70;1.00
26907;DHT22;14472;56.880;16.658;2022-07-10T14:50:42;19.70;1.00
26907;DHT22;14472;56.880;16.658;2022-07-10T14:53:08;19.70;1.00
26907;DHT22;14472;56.880;16.658;2022-07-10T14:55:35;19.70;1.00
26907;DHT22;14472;56.880;16.658;2022-07-10T14:58:01;19.70;1.00
26907;DHT22;14472;56.880;16.658;2022-07-10T15:00:27;19.70;1.00
26907;DHT22;14472;56.880;16.658;2022-07-10T15:02:53;19.60;1.00
26907;DHT22;14472;56.880;16.658;2022-07-10T15:05:19;19.60;1.00
26907;DHT22;14472;56.880;16.658;2022-07-10T15:07:45;19.60;1.00
26907;DHT22;14472;56.880;16.658;2022-07-10T15:10:11;19.50;1.00
26907;DHT22;14472;56.880;16.658;2022-07-10T15:12:38;19.50;1.00
26907;DHT22;14472;56.880;16.658;2022-07-10T15:15:07;19.50;1.00
26907;DHT22;14472;56.880;16.658;2022-07-10T15:17:35;19.40;1.00
26907;DHT22;14472;56.880;16.658;2022-07-10T15:20:01;19.40;1.00
26907;DHT22;14472;56.880;16.658;2022-07-10T15:22:27;19.40;1.00
26907;DHT22;14472;56.880;16.658;2022-07-10T15:24:53;19.30;1.00
26907;DHT22;14472;56.880;16.658;2022-07-10T15:27:19;19.30;1.00
26907;DHT22;14472;56.880;16.658;2022-07-10T15:29:45;19.30;1.00
26907;DHT22;14472;56.880;16.658;2022-07-10T15:32:10;19.20;1.00
26907;DHT22;14472;56.880;16.658;2022-07-10T15:34:38;19.10;1.00
26907;DHT22;14472;56.880;16.658;2022-07-10T15:37:04;19.20;1.00
26907;DHT22;14472;56.880;16.658;2022-07-10T15:39:30;19.10;1.00
26907;DHT22;14472;56.880;16.658;2022-07-10T15:42:07;19.10;1.00
26907;DHT22;14472;56.880;16.658;2022-07-10T15:44:33;19.00;1.00
26907;DHT22;14472;56.880;16.658;2022-07-10T15:46:59;19.00;1.00
26907;DHT22;14472;56.880;16.658;2022-07-10T15:49:24;18.90;1.00
26907;DHT22;14472;56.880;16.658;2022-07-10T15:51:50;18.90;1.00
26907;DHT22;14472;56.880;16.658;2022-07-10T15:54:16;18.90;1.00
26907;DHT22;14472;56.880;16.658;2022-07-10T15:56:43;18.90;1.00
26907;DHT22;14472;56.880;16.658;2022-07-10T15:59:10;18.80;1.00